sensor_id;sensor_type;location;lat;lon;timestamp;pressure;altitude;pressure_sealevel;temperature;humidity
19526;BME280;9907;42.676;26.348;2023-03-12T00:00:51;97502.16;;;7.44;46.72
19526;BME280;9907;42.676;26.348;2023-03-12T00:03:16;97470.41;;;7.34;46.60
19526;BME280;9907;42.676;26.348;2023-03-12T00:05:45;97473.00;;;7.52;46.56
19526;BME280;9907;42.676;26.348;2023-03-12T00:08:11;97541.28;;;7.34;45.67
19526;BME280;9907;42.676;26.348;2023-03-12T00:10:39;97518.38;;;7.15;46.28
19526;BME280;9907;42.676;26.348;2023-03-12T00:13:05;97482.47;;;7.29;46.03
19526;BME280;9907;42.676;26.348;2023-03-12T00:15:30;97488.63;;;7.29;46.47
19526;BME280;9907;42.676;26.348;2023-03-12T00:17:56;97511.53;;;7.30;46.29
19526;BME280;9907;42.676;26.348;2023-03-12T00:20:21;97526.16;;;7.17;46.32
19526;BME280;9907;42.676;26.348;2023-03-12T00:22:48;97500.06;;;7.30;46.18
19526;BME280;9907;42.676;26.348;2023-03-12T00:25:15;97497.56;;;7.28;46.39
19526;BME280;9907;42.676;26.348;2023-03-12T00:27:42;97517.63;;;7.23;46.26
19526;BME280;9907;42.676;26.348;2023-03-12T00:30:09;97506.91;;;7.15;46.09
19526;BME280;9907;42.676;26.348;2023-03-12T00:32:35;97549.47;;;7.23;46.39
19526;BME280;9907;42.676;26.348;2023-03-12T00:35:01;97525.97;;;7.10;46.24
19526;BME280;9907;42.676;26.348;2023-03-12T00:37:26;97512.59;;;7.02;47.05
19526;BME280;9907;42.676;26.348;2023-03-12T00:39:52;97521.47;;;7.11;46.85
19526;BME280;9907;42.676;26.348;2023-03-12T00:42:18;97513.53;;;7.11;46.85
19526;BME280;9907;42.676;26.348;2023-03-12T00:44:44;97513.66;;;6.92;47.28
19526;BME280;9907;42.676;26.348;2023-03-12T00:47:13;97512.38;;;6.96;46.98
19526;BME280;9907;42.676;26.348;2023-03-12T00:49:38;97564.41;;;6.89;47.48
19526;BME280;9907;42.676;26.348;2023-03-12T00:52:04;97541.03;;;6.74;47.40
19526;BME280;9907;42.676;26.348;2023-03-12T00:54:30;97512.81;;;6.73;47.97
19526;BME280;9907;42.676;26.348;2023-03-12T00:56:56;97520.88;;;6.81;48.07
19526;BME280;9907;42.676;26.348;2023-03-12T00:59:21;97546.88;;;6.78;48.00
19526;BME280;9907;42.676;26.348;2023-03-12T01:01:47;97537.19;;;6.87;48.68
19526;BME280;9907;42.676;26.348;2023-03-12T01:04:13;97552.09;;;6.88;48.66
19526;BME280;9907;42.676;26.348;2023-03-12T01:06:38;97558.13;;;6.90;48.21
19526;BME280;9907;42.676;26.348;2023-03-12T01:09:05;97566.44;;;6.77;48.38
19526;BME280;9907;42.676;26.348;2023-03-12T01:11:32;97560.28;;;6.76;48.69
19526;BME280;9907;42.676;26.348;2023-03-12T01:13:59;97547.91;;;6.95;48.41
19526;BME280;9907;42.676;26.348;2023-03-12T01:16:25;97564.50;;;6.97;48.36
19526;BME280;9907;42.676;26.348;2023-03-12T01:18:53;97573.59;;;6.94;48.27
19526;BME280;9907;42.676;26.348;2023-03-12T01:21:19;97566.69;;;6.83;48.05
19526;BME280;9907;42.676;26.348;2023-03-12T01:23:44;97575.56;;;6.92;48.37
19526;BME280;9907;42.676;26.348;2023-03-12T01:26:10;97585.34;;;6.92;48.32
19526;BME280;9907;42.676;26.348;2023-03-12T01:28:35;97602.53;;;6.88;48.16
19526;BME280;9907;42.676;26.348;2023-03-12T01:31:12;97595.63;;;6.77;47.84
19526;BME280;9907;42.676;26.348;2023-03-12T01:33:38;97611.81;;;6.83;48.68
19526;BME280;9907;42.676;26.348;2023-03-12T01:36:14;97611.19;;;6.72;48.40
19526;BME280;9907;42.676;26.348;2023-03-12T01:38:40;97629.56;;;6.83;48.44
19526;BME280;9907;42.676;26.348;2023-03-12T01:41:06;97637.34;;;6.57;48.04
19526;BME280;9907;42.676;26.348;2023-03-12T01:43:34;97617.34;;;6.63;48.30
19526;BME280;9907;42.676;26.348;2023-03-12T01:46:25;97631.50;;;6.81;47.64
19526;BME280;9907;42.676;26.348;2023-03-12T01:48:58;97654.19;;;6.66;47.88
19526;BME280;9907;42.676;26.348;2023-03-12T01:51:29;97641.19;;;6.72;47.94
19526;BME280;9907;42.676;26.348;2023-03-12T01:54:01;97628.66;;;6.65;47.51
19526;BME280;9907;42.676;26.348;2023-03-12T01:56:31;97647.19;;;6.74;48.01
19526;BME280;9907;42.676;26.348;2023-03-12T01:59:04;97660.63;;;6.63;47.72
19526;BME280;9907;42.676;26.348;2023-03-12T02:01:31;97668.47;;;6.65;47.42
19526;BME280;9907;42.676;26.348;2023-03-12T02:03:58;97663.28;;;6.63;47.82
19526;BME280;9907;42.676;26.348;2023-03-12T02:06:33;97665.00;;;6.55;47.72
19526;BME280;9907;42.676;26.348;2023-03-12T02:09:02;97665.94;;;6.63;47.62
19526;BME280;9907;42.676;26.348;2023-03-12T02:11:30;97669.63;;;6.53;47.79
19526;BME280;9907;42.676;26.348;2023-03-12T02:13:55;97688.84;;;6.64;47.77
19526;BME280;9907;42.676;26.348;2023-03-12T02:16:21;97696.16;;;6.43;47.59
19526;BME280;9907;42.676;26.348;2023-03-12T02:18:49;97697.28;;;6.50;48.01
19526;BME280;9907;42.676;26.348;2023-03-12T02:21:21;97702.78;;;6.66;47.14
19526;BME280;9907;42.676;26.348;2023-03-12T02:27:21;97705.63;;;6.55;47.85
19526;BME280;9907;42.676;26.348;2023-03-12T02:29:47;97703.69;;;6.48;48.42
19526;BME280;9907;42.676;26.348;2023-03-12T02:32:26;97716.66;;;6.51;47.66
19526;BME280;9907;42.676;26.348;2023-03-12T02:34:52;97720.81;;;6.63;48.01
19526;BME280;9907;42.676;26.348;2023-03-12T02:37:18;97722.47;;;6.27;47.34
19526;BME280;9907;42.676;26.348;2023-03-12T02:39:50;97707.91;;;6.50;47.63
19526;BME280;9907;42.676;26.348;2023-03-12T02:42:18;97704.31;;;6.22;48.67
19526;BME280;9907;42.676;26.348;2023-03-12T02:44:43;97706.50;;;6.46;47.46
19526;BME280;9907;42.676;26.348;2023-03-12T02:47:09;97695.06;;;6.36;48.53
19526;BME280;9907;42.676;26.348;2023-03-12T02:49:34;97731.81;;;6.12;48.13
19526;BME280;9907;42.676;26.348;2023-03-12T02:52:01;97707.06;;;6.40;47.86
19526;BME280;9907;42.676;26.348;2023-03-12T02:54:27;97723.13;;;6.29;47.21
19526;BME280;9907;42.676;26.348;2023-03-12T02:56:53;97716.41;;;6.44;47.01
19526;BME280;9907;42.676;26.348;2023-03-12T02:59:19;97702.06;;;6.37;47.24
19526;BME280;9907;42.676;26.348;2023-03-12T03:01:46;97679.78;;;6.20;47.17
19526;BME280;9907;42.676;26.348;2023-03-12T03:04:12;97694.31;;;5.97;47.68
19526;BME280;9907;42.676;26.348;2023-03-12T03:06:42;97678.38;;;6.07;47.29
19526;BME280;9907;42.676;26.348;2023-03-12T03:09:08;97682.72;;;6.08;47.67
19526;BME280;9907;42.676;26.348;2023-03-12T03:11:34;97642.69;;;6.01;47.60
19526;BME280;9907;42.676;26.348;2023-03-12T03:14:00;97679.78;;;5.92;47.67
19526;BME280;9907;42.676;26.348;2023-03-12T03:16:27;97654.41;;;5.99;48.14
19526;BME280;9907;42.676;26.348;2023-03-12T03:18:53;97683.41;;;5.81;48.22
19526;BME280;9907;42.676;26.348;2023-03-12T03:21:18;97696.94;;;5.78;48.58
19526;BME280;9907;42.676;26.348;2023-03-12T03:23:45;97637.13;;;5.75;48.49
19526;BME280;9907;42.676;26.348;2023-03-12T03:26:12;97693.16;;;5.80;48.00
19526;BME280;9907;42.676;26.348;2023-03-12T03:28:38;97667.38;;;5.73;48.17
19526;BME280;9907;42.676;26.348;2023-03-12T03:31:04;97669.47;;;5.69;48.27
19526;BME280;9907;42.676;26.348;2023-03-12T03:33:32;97640.50;;;5.87;48.02
19526;BME280;9907;42.676;26.348;2023-03-12T03:35:58;97655.25;;;5.70;48.45
19526;BME280;9907;42.676;26.348;2023-03-12T03:38:29;97687.88;;;5.61;48.07
19526;BME280;9907;42.676;26.348;2023-03-12T03:40:55;97696.09;;;5.58;48.22
19526;BME280;9907;42.676;26.348;2023-03-12T03:43:21;97656.09;;;5.61;48.52
19526;BME280;9907;42.676;26.348;2023-03-12T03:45:47;97673.22;;;5.67;48.14
19526;BME280;9907;42.676;26.348;2023-03-12T03:48:13;97676.16;;;5.73;47.92
19526;BME280;9907;42.676;26.348;2023-03-12T03:50:40;97674.78;;;5.79;48.26
19526;BME280;9907;42.676;26.348;2023-03-12T03:53:07;97713.81;;;5.77;47.90
19526;BME280;9907;42.676;26.348;2023-03-12T03:55:37;97721.47;;;5.61;48.26
19526;BME280;9907;42.676;26.348;2023-03-12T03:58:03;97715.75;;;5.75;48.15
19526;BME280;9907;42.676;26.348;2023-03-12T04:00:29;97694.00;;;5.52;47.87
19526;BME280;9907;42.676;26.348;2023-03-12T04:02:54;97706.28;;;5.72;47.55
19526;BME280;9907;42.676;26.348;2023-03-12T04:05:20;97716.59;;;5.66;47.87
19526;BME280;9907;42.676;26.348;2023-03-12T04:07:46;97739.16;;;5.51;47.88
19526;BME280;9907;42.676;26.348;2023-03-12T04:10:12;97738.47;;;5.49;48.34
19526;BME280;9907;42.676;26.348;2023-03-12T04:12:37;97725.50;;;5.55;48.20
19526;BME280;9907;42.676;26.348;2023-03-12T04:15:04;97747.94;;;5.51;48.06
19526;BME280;9907;42.676;26.348;2023-03-12T04:17:29;97746.69;;;5.55;48.11
19526;BME280;9907;42.676;26.348;2023-03-12T04:19:55;97759.25;;;5.53;47.71
19526;BME280;9907;42.676;26.348;2023-03-12T04:22:20;97756.56;;;5.44;47.92
19526;BME280;9907;42.676;26.348;2023-03-12T04:24:46;97804.38;;;5.42;47.66
19526;BME280;9907;42.676;26.348;2023-03-12T04:27:11;97792.56;;;5.46;47.51
19526;BME280;9907;42.676;26.348;2023-03-12T04:29:37;97844.00;;;5.53;47.16
19526;BME280;9907;42.676;26.348;2023-03-12T04:32:05;97870.22;;;5.56;46.98
19526;BME280;9907;42.676;26.348;2023-03-12T04:34:31;97892.91;;;5.49;47.08
19526;BME280;9907;42.676;26.348;2023-03-12T04:36:57;97943.50;;;5.46;46.81
19526;BME280;9907;42.676;26.348;2023-03-12T04:39:22;97906.94;;;5.40;46.64
19526;BME280;9907;42.676;26.348;2023-03-12T04:41:48;97910.06;;;5.55;46.60
19526;BME280;9907;42.676;26.348;2023-03-12T04:44:13;97900.19;;;5.57;46.70
19526;BME280;9907;42.676;26.348;2023-03-12T04:46:41;97913.19;;;5.69;46.49
19526;BME280;9907;42.676;26.348;2023-03-12T04:49:07;97924.59;;;5.60;46.56
19526;BME280;9907;42.676;26.348;2023-03-12T04:51:33;97925.19;;;5.73;46.58
19526;BME280;9907;42.676;26.348;2023-03-12T04:53:59;97934.50;;;5.88;46.54
19526;BME280;9907;42.676;26.348;2023-03-12T04:56:24;97941.75;;;5.86;45.77
19526;BME280;9907;42.676;26.348;2023-03-12T04:58:50;97958.59;;;5.85;45.72
19526;BME280;9907;42.676;26.348;2023-03-12T05:01:35;97970.16;;;5.84;45.59
19526;BME280;9907;42.676;26.348;2023-03-12T05:04:02;97970.31;;;6.13;45.85
19526;BME280;9907;42.676;26.348;2023-03-12T05:06:28;97967.72;;;5.93;45.34
19526;BME280;9907;42.676;26.348;2023-03-12T05:08:54;97961.06;;;6.17;45.50
19526;BME280;9907;42.676;26.348;2023-03-12T05:11:19;97971.22;;;6.43;45.35
19526;BME280;9907;42.676;26.348;2023-03-12T05:13:45;97962.66;;;6.29;45.27
19526;BME280;9907;42.676;26.348;2023-03-12T05:16:12;97970.25;;;6.53;45.82
19526;BME280;9907;42.676;26.348;2023-03-12T05:18:38;97963.66;;;6.76;44.49
19526;BME280;9907;42.676;26.348;2023-03-12T05:21:10;97959.06;;;6.98;44.51
19526;BME280;9907;42.676;26.348;2023-03-12T05:23:36;97948.31;;;6.90;44.05
19526;BME280;9907;42.676;26.348;2023-03-12T05:26:04;97949.97;;;7.10;44.00
19526;BME280;9907;42.676;26.348;2023-03-12T05:28:30;97966.56;;;7.21;43.63
19526;BME280;9907;42.676;26.348;2023-03-12T05:30:57;97988.09;;;7.38;43.56
19526;BME280;9907;42.676;26.348;2023-03-12T05:33:24;98003.63;;;7.42;43.12
19526;BME280;9907;42.676;26.348;2023-03-12T05:35:50;98009.78;;;7.14;43.61
19526;BME280;9907;42.676;26.348;2023-03-12T05:38:16;98032.41;;;7.37;43.48
19526;BME280;9907;42.676;26.348;2023-03-12T05:40:42;98037.03;;;7.35;43.22
19526;BME280;9907;42.676;26.348;2023-03-12T05:43:07;98030.44;;;7.49;43.16
19526;BME280;9907;42.676;26.348;2023-03-12T05:45:33;98050.16;;;8.02;42.46
19526;BME280;9907;42.676;26.348;2023-03-12T05:47:58;98064.28;;;8.03;42.28
19526;BME280;9907;42.676;26.348;2023-03-12T05:50:24;98081.94;;;8.04;42.23
19526;BME280;9907;42.676;26.348;2023-03-12T05:52:50;98108.06;;;8.18;41.46
19526;BME280;9907;42.676;26.348;2023-03-12T05:55:16;98115.25;;;8.08;41.59
19526;BME280;9907;42.676;26.348;2023-03-12T05:57:42;98121.22;;;8.19;41.01
19526;BME280;9907;42.676;26.348;2023-03-12T06:00:09;98105.59;;;8.07;41.81
19526;BME280;9907;42.676;26.348;2023-03-12T06:02:34;98115.44;;;8.43;41.10
19526;BME280;9907;42.676;26.348;2023-03-12T06:05:00;98118.69;;;8.27;40.81
19526;BME280;9907;42.676;26.348;2023-03-12T06:07:25;98130.66;;;8.51;40.96
19526;BME280;9907;42.676;26.348;2023-03-12T06:09:51;98132.22;;;8.80;40.93
19526;BME280;9907;42.676;26.348;2023-03-12T06:12:16;98158.22;;;8.96;40.59
19526;BME280;9907;42.676;26.348;2023-03-12T06:14:41;98179.66;;;8.67;40.52
19526;BME280;9907;42.676;26.348;2023-03-12T06:17:07;98174.31;;;8.67;40.42
19526;BME280;9907;42.676;26.348;2023-03-12T06:19:32;98173.28;;;9.50;40.09
19526;BME280;9907;42.676;26.348;2023-03-12T06:21:58;98183.38;;;9.29;39.86
19526;BME280;9907;42.676;26.348;2023-03-12T06:24:23;98193.16;;;8.47;40.91
19526;BME280;9907;42.676;26.348;2023-03-12T06:26:49;98190.50;;;8.47;41.44
19526;BME280;9907;42.676;26.348;2023-03-12T06:29:14;98200.94;;;8.02;40.89
19526;BME280;9907;42.676;26.348;2023-03-12T06:31:40;98187.28;;;8.53;41.49
19526;BME280;9907;42.676;26.348;2023-03-12T06:34:07;98208.69;;;8.51;40.55
19526;BME280;9907;42.676;26.348;2023-03-12T06:36:32;98204.34;;;8.50;41.80
19526;BME280;9907;42.676;26.348;2023-03-12T06:38:58;98216.28;;;8.37;41.50
19526;BME280;9907;42.676;26.348;2023-03-12T06:41:23;98227.56;;;8.67;41.08
19526;BME280;9907;42.676;26.348;2023-03-12T06:43:49;98213.31;;;9.23;40.84
19526;BME280;9907;42.676;26.348;2023-03-12T06:46:17;98228.50;;;9.40;40.48
19526;BME280;9907;42.676;26.348;2023-03-12T06:48:46;98223.97;;;9.68;40.30
19526;BME280;9907;42.676;26.348;2023-03-12T06:51:13;98230.34;;;10.10;39.39
19526;BME280;9907;42.676;26.348;2023-03-12T06:53:39;98233.66;;;10.04;39.54
19526;BME280;9907;42.676;26.348;2023-03-12T06:56:05;98227.06;;;9.99;39.48
19526;BME280;9907;42.676;26.348;2023-03-12T06:58:31;98232.88;;;10.12;39.68
19526;BME280;9907;42.676;26.348;2023-03-12T07:00:57;98237.47;;;10.63;39.30
19526;BME280;9907;42.676;26.348;2023-03-12T07:03:22;98242.66;;;10.21;39.10
19526;BME280;9907;42.676;26.348;2023-03-12T07:05:49;98244.75;;;10.35;39.34
19526;BME280;9907;42.676;26.348;2023-03-12T07:08:15;98256.47;;;10.60;38.53
19526;BME280;9907;42.676;26.348;2023-03-12T07:10:41;98250.66;;;10.64;39.29
19526;BME280;9907;42.676;26.348;2023-03-12T07:13:07;98276.03;;;10.68;39.42
19526;BME280;9907;42.676;26.348;2023-03-12T07:15:41;98278.69;;;10.60;39.06
19526;BME280;9907;42.676;26.348;2023-03-12T07:18:10;98272.53;;;10.24;39.76
19526;BME280;9907;42.676;26.348;2023-03-12T07:20:37;98270.56;;;10.27;39.73
19526;BME280;9907;42.676;26.348;2023-03-12T07:23:04;98285.31;;;9.86;39.77
19526;BME280;9907;42.676;26.348;2023-03-12T07:25:33;98284.88;;;9.45;40.43
19526;BME280;9907;42.676;26.348;2023-03-12T07:27:59;98298.53;;;9.33;40.31
19526;BME280;9907;42.676;26.348;2023-03-12T07:30:24;98293.25;;;10.13;40.22
19526;BME280;9907;42.676;26.348;2023-03-12T07:32:50;98310.28;;;9.67;40.01
19526;BME280;9907;42.676;26.348;2023-03-12T07:35:16;98307.50;;;9.59;40.17
19526;BME280;9907;42.676;26.348;2023-03-12T07:37:41;98297.31;;;10.17;40.23
19526;BME280;9907;42.676;26.348;2023-03-12T07:40:08;98307.34;;;9.88;40.24
19526;BME280;9907;42.676;26.348;2023-03-12T07:42:34;98293.91;;;9.79;40.01
19526;BME280;9907;42.676;26.348;2023-03-12T07:45:00;98302.06;;;9.78;40.72
19526;BME280;9907;42.676;26.348;2023-03-12T07:47:25;98297.59;;;9.96;40.64
19526;BME280;9907;42.676;26.348;2023-03-12T07:49:51;98301.06;;;10.24;39.95
19526;BME280;9907;42.676;26.348;2023-03-12T07:52:18;98282.16;;;10.79;40.78
19526;BME280;9907;42.676;26.348;2023-03-12T07:54:44;98305.03;;;10.81;39.31
19526;BME280;9907;42.676;26.348;2023-03-12T07:57:10;98325.63;;;10.45;39.66
19526;BME280;9907;42.676;26.348;2023-03-12T07:59:36;98317.16;;;11.01;39.72
19526;BME280;9907;42.676;26.348;2023-03-12T08:02:01;98333.16;;;10.14;39.74
19526;BME280;9907;42.676;26.348;2023-03-12T08:04:27;98328.66;;;10.15;39.80
19526;BME280;9907;42.676;26.348;2023-03-12T08:06:52;98331.69;;;10.20;40.66
19526;BME280;9907;42.676;26.348;2023-03-12T08:09:18;98344.44;;;9.81;39.80
19526;BME280;9907;42.676;26.348;2023-03-12T08:11:43;98354.31;;;9.44;40.19
19526;BME280;9907;42.676;26.348;2023-03-12T08:14:09;98350.31;;;9.20;40.98
19526;BME280;9907;42.676;26.348;2023-03-12T08:16:35;98352.97;;;9.20;42.09
19526;BME280;9907;42.676;26.348;2023-03-12T08:19:00;98370.47;;;9.42;41.42
19526;BME280;9907;42.676;26.348;2023-03-12T08:21:26;98365.19;;;9.23;41.08
19526;BME280;9907;42.676;26.348;2023-03-12T08:23:51;98386.91;;;9.38;41.17
19526;BME280;9907;42.676;26.348;2023-03-12T08:26:16;98370.22;;;9.63;41.05
19526;BME280;9907;42.676;26.348;2023-03-12T08:28:42;98369.16;;;9.46;41.84
19526;BME280;9907;42.676;26.348;2023-03-12T08:31:08;98381.13;;;8.57;42.56
19526;BME280;9907;42.676;26.348;2023-03-12T08:33:36;98385.44;;;8.87;43.44
19526;BME280;9907;42.676;26.348;2023-03-12T08:36:05;98368.19;;;8.91;41.98
19526;BME280;9907;42.676;26.348;2023-03-12T08:38:31;98375.16;;;9.58;41.98
19526;BME280;9907;42.676;26.348;2023-03-12T08:40:57;98367.66;;;9.71;41.21
19526;BME280;9907;42.676;26.348;2023-03-12T08:43:23;98364.69;;;9.47;41.57
19526;BME280;9907;42.676;26.348;2023-03-12T08:46:00;98361.75;;;9.40;41.37
19526;BME280;9907;42.676;26.348;2023-03-12T08:48:27;98380.28;;;8.86;41.59
19526;BME280;9907;42.676;26.348;2023-03-12T08:51:00;98377.03;;;9.01;41.69
19526;BME280;9907;42.676;26.348;2023-03-12T08:53:29;98380.00;;;8.89;42.42
19526;BME280;9907;42.676;26.348;2023-03-12T08:55:58;98380.72;;;9.27;41.80
19526;BME280;9907;42.676;26.348;2023-03-12T08:58:24;98378.28;;;9.07;42.07
19526;BME280;9907;42.676;26.348;2023-03-12T09:00:51;98404.41;;;8.74;42.20
19526;BME280;9907;42.676;26.348;2023-03-12T09:03:17;98400.63;;;8.67;42.42
19526;BME280;9907;42.676;26.348;2023-03-12T09:05:43;98395.41;;;8.85;41.93
19526;BME280;9907;42.676;26.348;2023-03-12T09:08:09;98384.75;;;8.95;42.52
19526;BME280;9907;42.676;26.348;2023-03-12T09:10:36;98383.13;;;9.31;43.26
19526;BME280;9907;42.676;26.348;2023-03-12T09:13:02;98404.16;;;9.70;41.61
19526;BME280;9907;42.676;26.348;2023-03-12T09:15:27;98401.78;;;9.21;40.76
19526;BME280;9907;42.676;26.348;2023-03-12T09:17:53;98408.31;;;8.80;42.09
19526;BME280;9907;42.676;26.348;2023-03-12T09:20:20;98392.88;;;8.84;41.81
19526;BME280;9907;42.676;26.348;2023-03-12T09:22:46;98396.91;;;9.07;42.05
19526;BME280;9907;42.676;26.348;2023-03-12T09:25:12;98396.19;;;9.61;42.44
19526;BME280;9907;42.676;26.348;2023-03-12T09:27:39;98397.91;;;9.79;41.20
19526;BME280;9907;42.676;26.348;2023-03-12T09:30:06;98397.25;;;9.77;41.81
19526;BME280;9907;42.676;26.348;2023-03-12T09:32:32;98399.56;;;9.16;40.78
19526;BME280;9907;42.676;26.348;2023-03-12T09:34:58;98407.91;;;9.41;41.77
19526;BME280;9907;42.676;26.348;2023-03-12T09:37:24;98404.28;;;9.42;41.68
19526;BME280;9907;42.676;26.348;2023-03-12T09:39:50;98399.25;;;9.29;41.69
19526;BME280;9907;42.676;26.348;2023-03-12T09:44:56;98398.16;;;9.22;41.88
19526;BME280;9907;42.676;26.348;2023-03-12T09:47:33;98406.44;;;9.19;41.47
19526;BME280;9907;42.676;26.348;2023-03-12T09:50:14;98417.91;;;9.29;41.54
19526;BME280;9907;42.676;26.348;2023-03-12T09:53:01;98414.75;;;8.97;42.17
19526;BME280;9907;42.676;26.348;2023-03-12T09:55:34;98399.84;;;9.13;42.60
19526;BME280;9907;42.676;26.348;2023-03-12T09:58:01;98404.66;;;8.91;42.40
19526;BME280;9907;42.676;26.348;2023-03-12T10:00:33;98397.13;;;9.33;42.51
19526;BME280;9907;42.676;26.348;2023-03-12T10:05:58;98409.28;;;9.08;42.45
19526;BME280;9907;42.676;26.348;2023-03-12T10:11:20;98397.63;;;9.09;43.05
19526;BME280;9907;42.676;26.348;2023-03-12T10:22:05;98405.63;;;9.09;42.68
19526;BME280;9907;42.676;26.348;2023-03-12T10:27:14;98397.94;;;8.96;42.43
19526;BME280;9907;42.676;26.348;2023-03-12T10:29:43;98403.97;;;8.89;42.70
19526;BME280;9907;42.676;26.348;2023-03-12T10:37:22;98395.63;;;9.30;42.66
19526;BME280;9907;42.676;26.348;2023-03-12T10:39:50;98395.91;;;9.27;42.15
19526;BME280;9907;42.676;26.348;2023-03-12T10:42:21;98382.34;;;9.48;43.07
19526;BME280;9907;42.676;26.348;2023-03-12T10:44:57;98388.28;;;9.42;42.50
19526;BME280;9907;42.676;26.348;2023-03-12T10:47:37;98387.06;;;9.63;43.01
19526;BME280;9907;42.676;26.348;2023-03-12T10:52:40;98398.47;;;9.56;41.72
19526;BME280;9907;42.676;26.348;2023-03-12T10:58:05;98384.50;;;9.71;42.38
19526;BME280;9907;42.676;26.348;2023-03-12T11:00:31;98393.13;;;9.83;42.54
19526;BME280;9907;42.676;26.348;2023-03-12T11:03:03;98392.34;;;9.73;41.84
19526;BME280;9907;42.676;26.348;2023-03-12T11:05:34;98397.56;;;9.65;41.51
19526;BME280;9907;42.676;26.348;2023-03-12T11:08:00;98398.22;;;9.40;41.54
19526;BME280;9907;42.676;26.348;2023-03-12T11:10:45;98403.38;;;9.60;42.58
19526;BME280;9907;42.676;26.348;2023-03-12T11:13:32;98409.75;;;9.40;41.63
19526;BME280;9907;42.676;26.348;2023-03-12T11:19:31;98402.94;;;9.55;41.89
19526;BME280;9907;42.676;26.348;2023-03-12T11:22:03;98400.59;;;9.43;42.11
19526;BME280;9907;42.676;26.348;2023-03-12T11:24:30;98407.97;;;9.31;41.91
19526;BME280;9907;42.676;26.348;2023-03-12T11:29:47;98402.91;;;9.65;41.52
19526;BME280;9907;42.676;26.348;2023-03-12T11:32:23;98404.59;;;9.66;42.31
19526;BME280;9907;42.676;26.348;2023-03-12T11:34:53;98399.97;;;9.68;41.69
19526;BME280;9907;42.676;26.348;2023-03-12T11:37:36;98398.34;;;9.85;42.06
19526;BME280;9907;42.676;26.348;2023-03-12T11:42:55;98412.34;;;9.59;41.18
19526;BME280;9907;42.676;26.348;2023-03-12T11:48:35;98415.50;;;9.45;42.06
19526;BME280;9907;42.676;26.348;2023-03-12T11:54:18;98399.38;;;9.74;42.37
19526;BME280;9907;42.676;26.348;2023-03-12T11:56:52;98415.41;;;9.92;42.92
19526;BME280;9907;42.676;26.348;2023-03-12T11:59:42;98410.03;;;9.74;42.33
19526;BME280;9907;42.676;26.348;2023-03-12T12:07:51;98419.56;;;9.76;42.62
19526;BME280;9907;42.676;26.348;2023-03-12T12:16:23;98447.31;;;9.56;42.42
19526;BME280;9907;42.676;26.348;2023-03-12T12:28:07;98464.41;;;9.91;42.34
19526;BME280;9907;42.676;26.348;2023-03-12T12:36:18;98454.94;;;10.06;41.62
19526;BME280;9907;42.676;26.348;2023-03-12T12:39:28;98467.00;;;10.10;41.85
19526;BME280;9907;42.676;26.348;2023-03-12T12:41:59;98475.81;;;9.83;42.43
19526;BME280;9907;42.676;26.348;2023-03-12T12:44:31;98486.16;;;9.96;42.04
19526;BME280;9907;42.676;26.348;2023-03-12T12:47:02;98477.97;;;10.07;42.35
19526;BME280;9907;42.676;26.348;2023-03-12T12:49:52;98490.19;;;10.19;42.46
19526;BME280;9907;42.676;26.348;2023-03-12T12:52:20;98489.88;;;9.75;41.74
19526;BME280;9907;42.676;26.348;2023-03-12T13:00:41;98484.91;;;10.00;41.86
19526;BME280;9907;42.676;26.348;2023-03-12T13:03:14;98487.44;;;10.01;41.94
19526;BME280;9907;42.676;26.348;2023-03-12T13:05:56;98488.19;;;10.21;41.87
19526;BME280;9907;42.676;26.348;2023-03-12T13:10:57;98496.38;;;10.19;41.64
19526;BME280;9907;42.676;26.348;2023-03-12T13:13:23;98496.34;;;10.10;41.63
19526;BME280;9907;42.676;26.348;2023-03-12T13:15:48;98502.59;;;9.91;42.24
19526;BME280;9907;42.676;26.348;2023-03-12T13:21:05;98499.75;;;9.65;41.99
19526;BME280;9907;42.676;26.348;2023-03-12T13:26:29;98500.78;;;9.92;42.37
19526;BME280;9907;42.676;26.348;2023-03-12T13:29:12;98521.28;;;9.91;41.91
19526;BME280;9907;42.676;26.348;2023-03-12T13:31:43;98517.34;;;9.95;41.89
19526;BME280;9907;42.676;26.348;2023-03-12T13:34:30;98519.81;;;9.69;41.67
19526;BME280;9907;42.676;26.348;2023-03-12T13:36:59;98521.53;;;9.98;42.33
19526;BME280;9907;42.676;26.348;2023-03-12T13:39:35;98526.06;;;9.97;41.86
19526;BME280;9907;42.676;26.348;2023-03-12T13:44:50;98523.88;;;10.10;42.44
19526;BME280;9907;42.676;26.348;2023-03-12T13:47:22;98534.66;;;9.72;42.51
19526;BME280;9907;42.676;26.348;2023-03-12T13:50:02;98544.00;;;9.49;43.37
19526;BME280;9907;42.676;26.348;2023-03-12T13:52:29;98534.13;;;9.68;42.88
19526;BME280;9907;42.676;26.348;2023-03-12T13:55:00;98545.25;;;9.45;42.75
19526;BME280;9907;42.676;26.348;2023-03-12T13:57:49;98544.56;;;9.33;43.13
19526;BME280;9907;42.676;26.348;2023-03-12T14:00:19;98547.91;;;9.54;43.18
19526;BME280;9907;42.676;26.348;2023-03-12T14:02:52;98554.09;;;9.45;43.26
19526;BME280;9907;42.676;26.348;2023-03-12T14:05:22;98546.78;;;9.47;42.88
19526;BME280;9907;42.676;26.348;2023-03-12T14:08:08;98570.53;;;9.12;43.69
19526;BME280;9907;42.676;26.348;2023-03-12T14:19:03;98568.72;;;9.12;44.00
19526;BME280;9907;42.676;26.348;2023-03-12T14:21:33;98566.03;;;9.03;42.97
19526;BME280;9907;42.676;26.348;2023-03-12T14:24:00;98557.34;;;9.10;43.25
19526;BME280;9907;42.676;26.348;2023-03-12T14:26:30;98565.22;;;9.31;43.28
19526;BME280;9907;42.676;26.348;2023-03-12T14:28:59;98567.41;;;9.36;42.78
19526;BME280;9907;42.676;26.348;2023-03-12T14:31:27;98561.38;;;9.43;42.56
19526;BME280;9907;42.676;26.348;2023-03-12T14:36:28;98562.41;;;9.42;42.71
19526;BME280;9907;42.676;26.348;2023-03-12T14:39:09;98574.72;;;9.24;43.16
19526;BME280;9907;42.676;26.348;2023-03-12T14:41:41;98576.69;;;9.12;42.65
19526;BME280;9907;42.676;26.348;2023-03-12T14:44:24;98573.75;;;9.25;42.69
19526;BME280;9907;42.676;26.348;2023-03-12T14:47:05;98574.44;;;9.08;42.62
19526;BME280;9907;42.676;26.348;2023-03-12T14:49:39;98578.50;;;9.02;42.59
19526;BME280;9907;42.676;26.348;2023-03-12T14:52:05;98583.94;;;8.91;42.00
19526;BME280;9907;42.676;26.348;2023-03-12T14:54:31;98580.44;;;8.91;42.36
19526;BME280;9907;42.676;26.348;2023-03-12T14:56:56;98574.56;;;8.97;42.23
19526;BME280;9907;42.676;26.348;2023-03-12T14:59:28;98574.84;;;9.03;42.48